Time;durP1;ratioP1;P1;durP2;ratioP2;P2;SDS_P1;SDS_P2;PMS_P1;PMS_P2;Temp;Humidity;BMP_temperature;BMP_pressure;BME280_temperature;BME280_humidity;BME280_pressure;Samples;Min_cycle;Max_cycle;Signal;HPM_P1;HPM_P2
2022/05/19 00:02:12;;;;;;;24.43;18.37;;;;;;;20.85;69.61;101647.53;5221594;28;20476;-74
2022/05/19 00:04:45;;;;;;;24.50;18.77;;;;;;;20.72;70.27;101643.34;5223211;28;20549;-74
2022/05/19 00:07:16;;;;;;;29.47;19.50;;;;;;;20.77;69.53;101634.94;5220453;28;20044;-74
2022/05/19 00:09:49;;;;;;;26.70;20.10;;;;;;;20.68;70.19;101631.31;5219945;28;20452;-74
2022/05/19 00:12:22;;;;;;;25.93;19.93;;;;;;;20.68;70.18;101632.13;5222771;28;20037;-75
2022/05/19 00:14:53;;;;;;;22.10;19.00;;;;;;;20.62;70.65;101631.84;5221339;28;20069;-75
2022/05/19 00:17:25;;;;;;;26.70;20.60;;;;;;;20.66;70.55;101623.47;5219678;28;20053;-74
2022/05/19 00:19:56;;;;;;;27.10;23.07;;;;;;;20.54;70.83;101622.75;5219441;28;20091;-75
2022/05/19 00:22:27;;;;;;;29.77;20.27;;;;;;;20.53;71.11;101621.06;5220151;28;20025;-75
2022/05/19 00:24:58;;;;;;;29.07;20.53;;;;;;;20.36;71.30;101600.47;5218921;28;20022;-75
2022/05/19 00:27:30;;;;;;;29.30;19.80;;;;;;;20.51;71.55;101614.22;5212312;28;20128;-75
2022/05/19 00:30:01;;;;;;;24.60;19.23;;;;;;;20.46;71.33;101598.66;5211761;28;20388;-75
2022/05/19 00:32:32;;;;;;;28.90;19.80;;;;;;;20.67;70.61;101613.63;5215982;28;20481;-75
2022/05/19 00:35:04;;;;;;;26.00;18.53;;;;;;;20.57;71.13;101612.81;5216106;28;20030;-76
2022/05/19 00:37:36;;;;;;;27.27;20.80;;;;;;;20.47;71.62;101607.50;5210129;28;20440;-76
2022/05/19 00:40:09;;;;;;;24.87;19.97;;;;;;;20.55;71.30;101610.28;5218711;28;20492;-76
2022/05/19 00:42:46;;;;;;;26.30;21.63;;;;;;;20.37;72.35;101608.31;5218054;28;20037;-76
2022/05/19 00:45:21;;;;;;;27.70;20.90;;;;;;;20.43;72.41;101601.59;5211189;28;20093;-76
2022/05/19 00:48:19;;;;;;;32.27;20.37;;;;;;;20.38;71.63;101587.88;5228018;28;20056;-76
2022/05/19 00:50:59;;;;;;;28.37;21.67;;;;;;;20.46;71.71;101601.31;5211391;28;20030;-76
2022/05/19 00:54:04;;;;;;;26.60;20.87;;;;;;;20.59;70.72;101594.88;5229071;28;20021;-75
2022/05/19 00:56:46;;;;;;;29.73;21.17;;;;;;;20.33;71.97;101579.47;5219580;28;20057;-75
2022/05/19 00:59:42;;;;;;;28.40;20.90;;;;;;;20.37;72.30;101586.22;5227714;28;20438;-76
2022/05/19 01:02:17;;;;;;;30.03;21.20;;;;;;;20.44;71.65;101587.31;5226354;22;20057;-76
2022/05/19 01:05:02;;;;;;;25.97;20.70;;;;;;;20.23;73.07;101580.28;5239817;28;20029;-75
2022/05/19 01:07:46;;;;;;;26.53;21.33;;;;;;;20.20;72.93;101564.63;5231595;28;20053;-75
2022/05/19 01:10:17;;;;;;;27.73;21.25;;;;;;;20.05;73.65;101572.16;5223694;28;20391;-76
2022/05/19 01:12:51;;;;;;;28.80;21.80;;;;;;;20.12;73.08;101572.44;5214660;28;20029;-75
2022/05/19 01:15:22;;;;;;;32.03;22.57;;;;;;;20.06;73.94;101563.19;5209689;28;20026;-75
2022/05/19 01:17:54;;;;;;;26.63;21.40;;;;;;;20.13;73.56;101563.47;5215211;28;20037;-76
2022/05/19 01:20:26;;;;;;;33.97;22.53;;;;;;;20.06;73.54;101564.03;5225117;28;20079;-76
2022/05/19 01:23:11;;;;;;;28.63;22.03;;;;;;;19.86;75.19;101557.81;5222459;28;20021;-76
2022/05/19 01:25:55;;;;;;;25.73;21.20;;;;;;;19.88;74.49;101553.19;5221383;28;20041;-75
2022/05/19 01:28:28;;;;;;;27.10;23.33;;;;;;;19.95;74.96;101553.47;5223359;28;20037;-75
2022/05/19 01:31:00;;;;;;;26.30;21.67;;;;;;;19.90;74.97;101542.41;5232995;28;20051;-75
2022/05/19 01:33:31;;;;;;;29.40;22.27;;;;;;;19.91;75.00;101549.44;5221003;28;20133;-76
2022/05/19 01:36:02;;;;;;;27.47;22.60;;;;;;;19.87;75.54;101540.03;5214422;28;20095;-75
2022/05/19 01:38:34;;;;;;;30.33;23.73;;;;;;;19.70;76.03;101529.09;5225848;28;20041;-75
2022/05/19 01:41:23;;;;;;;28.60;23.90;;;;;;;19.74;75.92;101524.34;5223095;28;20018;-75
2022/05/19 01:44:09;;;;;;;27.80;24.30;;;;;;;19.65;77.19;101528.66;5223220;28;20021;-74
2022/05/19 01:46:42;;;;;;;27.63;23.83;;;;;;;19.56;77.60;101536.47;5234423;28;20091;-74
2022/05/19 01:49:53;;;;;;;35.00;23.77;;;;;;;19.62;76.92;101534.25;5214446;28;20033;-75
2022/05/19 01:52:45;;;;;;;26.80;24.00;;;;;;;19.46;78.24;101532.94;5209020;28;20404;-75
2022/05/19 01:55:43;;;;;;;27.30;24.00;;;;;;;19.53;77.54;101518.13;5228067;28;20037;-75
2022/05/19 01:58:40;;;;;;;31.37;25.00;;;;;;;19.43;77.72;101530.53;5214193;28;20566;-75
2022/05/19 02:01:14;;;;;;;28.43;23.83;;;;;;;19.45;78.77;101507.34;5214174;28;20022;-74
2022/05/19 02:04:00;;;;;;;27.17;23.95;;;;;;;19.48;78.40;101520.34;5223596;28;20045;-74
2022/05/19 02:06:40;;;;;;;31.63;23.83;;;;;;;19.24;80.21;101502.94;5234627;28;20105;-74
2022/05/19 02:09:22;;;;;;;31.03;24.83;;;;;;;19.38;79.86;101511.50;5234706;28;20053;-75
2022/05/19 02:11:56;;;;;;;28.97;23.77;;;;;;;19.24;80.52;101510.91;5216052;28;20030;-75
2022/05/19 02:14:42;;;;;;;26.98;23.98;;;;;;;19.46;79.37;101503.72;5227293;28;20403;-74
2022/05/19 02:17:16;;;;;;;27.03;22.23;;;;;;;19.49;79.07;101514.09;5213129;28;20256;-75
2022/05/19 02:19:51;;;;;;;27.17;23.60;;;;;;;19.33;79.37;101515.41;5213983;28;20088;-74
2022/05/19 02:22:29;;;;;;;28.10;23.43;;;;;;;19.28;80.51;101522.09;5224249;28;20030;-75
2022/05/19 02:25:25;;;;;;;26.33;22.43;;;;;;;19.28;80.53;101524.75;5217494;28;20034;-74
2022/05/19 02:28:17;;;;;;;28.33;24.17;;;;;;;19.56;78.24;101520.53;5234187;28;20026;-75
2022/05/19 02:30:48;;;;;;;29.77;22.13;;;;;;;19.20;80.78;101520.13;5231362;28;20033;-74
2022/05/19 02:33:21;;;;;;;26.67;21.37;;;;;;;19.33;79.71;101518.06;5227693;28;20144;-74
2022/05/19 02:35:52;;;;;;;21.63;19.43;;;;;;;19.52;78.57;101524.44;5212725;28;20030;-74
2022/05/19 02:38:24;;;;;;;23.97;20.00;;;;;;;19.38;79.34;101525.63;5222792;28;20033;-74
2022/05/19 02:40:55;;;;;;;26.83;21.37;;;;;;;19.34;79.47;101521.56;5213080;28;20026;-75
2022/05/19 02:43:26;;;;;;;25.33;20.67;;;;;;;19.43;78.94;101530.53;5221072;28;20562;-74
2022/05/19 02:45:58;;;;;;;26.67;18.50;;;;;;;19.55;78.09;101532.13;5231908;28;20035;-75
2022/05/19 02:48:32;;;;;;;22.53;17.87;;;;;;;19.55;78.12;101520.66;5232651;28;20134;-74
2022/05/19 02:51:03;;;;;;;20.73;17.67;;;;;;;19.68;76.76;101536.38;5233506;28;20030;-74
2022/05/19 02:53:35;;;;;;;20.10;17.13;;;;;;;19.56;77.27;101536.47;5228015;28;20049;-74
2022/05/19 02:56:06;;;;;;;19.53;16.73;;;;;;;19.40;77.82;101512.22;5232878;28;20061;-75
2022/05/19 02:58:37;;;;;;;21.97;17.10;;;;;;;19.66;76.83;101535.66;5212946;28;20030;-75
2022/05/19 03:01:09;;;;;;;17.43;15.73;;;;;;;19.71;76.23;101538.75;5212000;28;20014;-74
2022/05/19 03:03:40;;;;;;;19.40;16.30;;;;;;;19.76;75.31;101544.50;5220100;28;20041;-75
2022/05/19 03:06:11;;;;;;;19.53;15.77;;;;;;;19.64;76.60;101636.75;5215132;28;20030;-75
2022/05/19 03:08:42;;;;;;;24.07;17.03;;;;;;;19.85;75.90;101664.25;5212755;28;20033;-75
2022/05/19 03:11:14;;;;;;;26.17;21.20;;;;;;;19.82;76.49;101682.16;5212163;28;20034;-75
2022/05/19 03:13:45;;;;;;;23.10;18.20;;;;;;;19.69;75.87;101641.66;5218717;28;20104;-75
2022/05/19 03:16:16;;;;;;;19.83;17.73;;;;;;;19.94;74.67;101682.06;5226456;28;20042;-74
2022/05/19 03:18:47;;;;;;;24.17;18.10;;;;;;;19.95;74.80;101689.06;5219088;28;20099;-74
2022/05/19 03:21:19;;;;;;;19.60;16.77;;;;;;;20.00;73.85;101678.84;5226666;28;20034;-74
2022/05/19 03:23:50;;;;;;;23.00;16.73;;;;;;;20.05;73.23;101679.34;5222720;28;20026;-75
2022/05/19 03:26:21;;;;;;;21.37;16.13;;;;;;;19.69;73.46;101646.97;5228403;28;20030;-75
2022/05/19 03:28:53;;;;;;;20.23;14.97;;;;;;;20.00;73.75;101686.00;5212045;28;20077;-75
2022/05/19 03:31:24;;;;;;;18.83;15.77;;;;;;;19.96;73.77;101688.09;5213367;28;20033;-75
2022/05/19 03:33:56;;;;;;;20.30;16.13;;;;;;;20.04;72.96;101690.94;5216530;28;20033;-75
2022/05/19 03:36:27;;;;;;;18.33;14.73;;;;;;;20.07;73.08;101679.22;5228382;28;20753;-75
2022/05/19 03:38:59;;;;;;;23.20;15.53;;;;;;;19.99;73.67;101682.50;5210673;28;20038;-74
2022/05/19 03:41:30;;;;;;;21.27;15.60;;;;;;;19.99;73.95;101682.50;5219059;28;20694;-74
2022/05/19 03:44:02;;;;;;;18.53;14.67;;;;;;;19.94;75.90;101690.03;5224339;28;20483;-75
2022/05/19 03:46:33;;;;;;;17.57;14.13;;;;;;;20.02;74.81;101697.38;5222369;28;20038;-75
2022/05/19 03:49:04;;;;;;;23.23;16.40;;;;;;;19.82;76.12;101683.97;5210362;28;20025;-75
2022/05/19 03:51:36;;;;;;;18.57;15.30;;;;;;;19.97;75.09;101670.34;5221685;28;20112;-74
2022/05/19 03:54:08;;;;;;;16.43;14.60;;;;;;;19.88;75.33;101678.13;5218942;28;20069;-74
2022/05/19 03:56:39;;;;;;;18.17;15.13;;;;;;;19.85;75.67;101683.72;5222795;28;20065;-74
2022/05/19 03:59:11;;;;;;;19.03;15.87;;;;;;;19.93;74.81;101686.53;5211321;28;20702;-74
2022/05/19 04:01:42;;;;;;;18.90;14.33;;;;;;;19.97;74.40;101702.25;5211745;28;20041;-74
2022/05/19 04:04:13;;;;;;;15.67;13.93;;;;;;;19.81;76.57;101703.56;5223759;28;20037;-75
2022/05/19 04:06:45;;;;;;;22.20;16.97;;;;;;;19.75;75.94;101693.44;5226479;28;20109;-75
2022/05/19 04:09:16;;;;;;;21.40;15.13;;;;;;;19.85;76.07;101704.97;5226484;28;20029;-75
2022/05/19 04:11:49;;;;;;;16.80;13.73;;;;;;;19.88;75.96;101704.69;5225662;28;20034;-74
2022/05/19 04:14:21;;;;;;;20.13;15.33;;;;;;;19.87;75.94;101695.06;5224499;28;20026;-75
2022/05/19 04:16:53;;;;;;;19.87;15.33;;;;;;;19.73;77.03;101695.38;5230250;28;20041;-75
2022/05/19 04:19:24;;;;;;;19.17;15.63;;;;;;;19.80;75.82;101697.41;5232254;28;20032;-74
2022/05/19 04:21:56;;;;;;;16.13;14.43;;;;;;;19.87;75.34;101692.41;5228170;28;20029;-75
2022/05/19 04:24:27;;;;;;;22.33;14.67;;;;;;;19.88;76.62;101709.19;5217262;28;20030;-75
2022/05/19 04:26:58;;;;;;;17.57;13.90;;;;;;;19.97;75.69;101708.38;5211203;28;20128;-75
2022/05/19 04:29:30;;;;;;;21.70;15.37;;;;;;;19.87;76.52;101702.19;5213070;28;20507;-75
2022/05/19 04:32:01;;;;;;;21.90;15.57;;;;;;;19.85;76.89;101698.81;5218848;28;20029;-75
2022/05/19 04:34:32;;;;;;;21.27;14.80;;;;;;;19.92;76.59;101692.00;5216144;28;20021;-75
2022/05/19 04:37:04;;;;;;;22.33;15.07;;;;;;;19.80;76.88;101697.41;5227907;28;20038;-75
2022/05/19 04:39:35;;;;;;;19.77;15.80;;;;;;;19.80;77.72;101685.91;5231590;28;20025;-75
2022/05/19 04:42:08;;;;;;;19.47;16.70;;;;;;;19.98;76.16;101691.47;5222778;28;20025;-75
2022/05/19 04:44:40;;;;;;;23.33;16.95;;;;;;;19.81;77.32;101693.75;5226260;28;20106;-75
2022/05/19 04:47:11;;;;;;;18.00;15.57;;;;;;;19.82;77.64;101700.78;5212808;28;20034;-75
2022/05/19 04:49:43;;;;;;;20.30;16.30;;;;;;;19.98;76.13;101696.78;5220050;28;20054;-75
2022/05/19 04:52:14;;;;;;;22.53;16.47;;;;;;;19.90;77.14;101691.28;5221204;28;20461;-75
2022/05/19 04:54:45;;;;;;;21.97;16.93;;;;;;;19.78;77.92;101686.06;5221356;28;20479;-75
2022/05/19 04:57:17;;;;;;;20.40;16.77;;;;;;;19.95;76.34;101683.75;5213633;28;20030;-75
2022/05/19 04:59:48;;;;;;;20.07;16.23;;;;;;;19.87;77.56;101691.53;5210921;28;20026;-75
2022/05/19 05:02:19;;;;;;;17.73;15.33;;;;;;;19.90;77.29;101696.59;5207691;28;20065;-75
2022/05/19 05:04:51;;;;;;;24.70;15.03;;;;;;;19.86;77.96;101687.22;5223653;28;20029;-74
2022/05/19 05:07:22;;;;;;;18.20;13.07;;;;;;;19.79;78.28;101685.06;5203326;28;20117;-73
2022/05/19 05:09:53;;;;;;;19.23;14.07;;;;;;;19.87;77.53;101679.09;5211999;28;20034;-74
2022/05/19 05:12:24;;;;;;;16.73;13.73;;;;;;;19.86;78.84;101682.75;5218273;28;20121;-75
2022/05/19 05:14:56;;;;;;;20.87;12.83;;;;;;;19.93;77.73;101677.75;5226480;28;20049;-75
2022/05/19 05:17:27;;;;;;;17.97;12.13;;;;;;;19.95;78.33;101665.13;5228771;28;20069;-74
2022/05/19 05:19:58;;;;;;;22.70;12.60;;;;;;;19.88;80.71;101662.16;5230289;28;20022;-74
2022/05/19 05:22:34;;;;;;;30.00;15.30;;;;;;;19.85;83.41;101653.63;5219183;28;20025;-75
2022/05/19 05:25:09;;;;;;;14.30;10.20;;;;;;;19.88;85.70;101654.19;5235086;28;20052;-74
2022/05/19 05:27:42;;;;;;;16.27;11.93;;;;;;;19.77;86.58;101639.22;5217568;28;20032;-74
2022/05/19 05:30:14;;;;;;;20.53;11.00;;;;;;;19.68;86.98;101626.72;5211958;28;20392;-74
2022/05/19 05:32:45;;;;;;;21.13;11.33;;;;;;;19.53;86.60;101629.69;5224185;28;20105;-74
2022/05/19 05:35:17;;;;;;;19.20;12.70;;;;;;;19.57;89.97;101639.09;5211618;28;20569;-75
2022/05/19 05:37:48;;;;;;;18.23;14.00;;;;;;;19.38;92.78;101621.25;5219376;28;20022;-74
2022/05/19 05:40:19;;;;;;;15.27;12.67;;;;;;;19.31;90.65;101612.97;5209924;28;20026;-75
2022/05/19 05:42:51;;;;;;;15.87;12.40;;;;;;;19.24;90.08;101585.25;5211526;28;20065;-75
2022/05/19 05:45:22;;;;;;;15.20;13.00;;;;;;;19.02;91.41;101584.41;5212450;28;20034;-73
2022/05/19 05:47:53;;;;;;;19.50;12.87;;;;;;;19.05;92.74;101578.84;5218474;28;20088;-74
2022/05/19 05:50:24;;;;;;;16.67;12.37;;;;;;;19.06;92.30;101572.53;5211501;28;20034;-76
2022/05/19 05:52:56;;;;;;;12.97;9.90;;;;;;;19.17;89.67;101594.72;5223770;28;20705;-77
2022/05/19 05:55:28;;;;;;;18.23;10.43;;;;;;;19.29;89.28;101595.47;5216790;28;20121;-76
2022/05/19 05:57:59;;;;;;;19.67;11.30;;;;;;;19.03;92.15;101586.06;5217388;28;20033;-77
2022/05/19 06:00:30;;;;;;;18.70;11.50;;;;;;;19.30;89.40;101586.53;5217813;28;20029;-76
2022/05/19 06:03:01;;;;;;;23.53;13.33;;;;;;;18.91;93.53;101563.22;5217020;28;20050;-76
2022/05/19 06:05:33;;;;;;;24.53;13.77;;;;;;;19.08;95.09;101549.34;5224501;28;20101;-75
2022/05/19 06:08:05;;;;;;;23.30;15.43;;;;;;;19.17;94.54;101578.78;5221361;28;20033;-75
2022/05/19 06:10:36;;;;;;;21.43;13.37;;;;;;;19.28;90.85;101601.75;5221006;28;20113;-71
2022/05/19 06:13:08;;;;;;;23.50;14.37;;;;;;;19.33;90.74;101608.38;5213472;28;20018;-80
2022/05/19 06:15:39;;;;;;;18.83;14.10;;;;;;;19.15;90.41;101599.34;5229721;28;20057;-78
2022/05/19 06:18:11;;;;;;;23.57;14.50;;;;;;;19.17;92.86;101605.31;5207320;28;20649;-82
2022/05/19 06:20:43;;;;;;;15.83;14.23;;;;;;;19.08;91.85;101607.75;5223192;28;20025;-84
2022/05/19 06:23:18;;;;;;;27.47;16.23;;;;;;;19.14;92.76;101605.59;5226790;28;20824;-80
2022/05/19 06:25:49;;;;;;;;;;;;;;;19.41;88.53;101593.59;5217702;28;20041;-80
2022/05/19 06:28:20;;;;;;;16.60;14.90;;;;;;;19.28;91.19;101591.16;5217849;28;19913;-83
2022/05/19 06:30:52;;;;;;;19.00;16.60;;;;;;;19.07;92.86;101574.25;5220668;28;20041;-77
2022/05/19 06:33:23;;;;;;;26.87;16.53;;;;;;;19.25;92.86;101584.28;5216431;28;20033;-76
2022/05/19 06:35:54;;;;;;;17.80;15.90;;;;;;;19.31;90.84;101574.94;5215717;28;20496;-76
2022/05/19 06:38:26;;;;;;;17.87;15.97;;;;;;;19.10;92.25;101568.66;5228340;28;20083;-76
2022/05/19 06:42:00;;;;;;;18.97;16.00;;;;;;;19.22;91.32;101592.50;5224942;28;20021;-75
2022/05/19 06:43:49;;;;;;;23.27;17.13;;;;;;;19.12;91.97;101571.22;5229067;28;20057;-74
2022/05/19 06:46:21;;;;;;;17.53;14.43;;;;;;;19.23;90.23;101551.72;5218952;28;20061;-76
2022/05/19 06:48:52;;;;;;;18.97;16.77;;;;;;;19.27;92.72;101549.63;5217925;28;20031;-75
2022/05/19 06:51:23;;;;;;;19.33;16.47;;;;;;;19.32;93.69;101560.72;5232101;28;20060;-75
2022/05/19 06:53:54;;;;;;;18.30;15.03;;;;;;;19.46;90.17;101567.47;5215257;28;20025;-76
2022/05/19 06:56:26;;;;;;;18.47;14.17;;;;;;;19.14;89.49;101521.50;5208316;28;20496;-76
2022/05/19 06:58:57;;;;;;;24.77;15.63;;;;;;;19.56;91.78;101568.34;5231567;28;20100;-75
2022/05/19 07:01:29;;;;;;;18.43;14.77;;;;;;;19.57;90.95;101574.50;5225292;28;20030;-75
2022/05/19 07:04:01;;;;;;;18.17;14.40;;;;;;;19.65;88.14;101566.72;5211026;28;20046;-75
2022/05/19 07:06:32;;;;;;;17.20;14.20;;;;;;;19.56;87.43;101565.69;5207896;28;20073;-75
2022/05/19 07:09:03;;;;;;;16.30;14.57;;;;;;;19.56;90.97;101551.56;5221483;28;20028;-76
2022/05/19 07:11:35;;;;;;;18.40;14.60;;;;;;;19.47;89.65;101531.97;5220489;28;20025;-74
2022/05/19 07:14:07;;;;;;;17.60;14.60;;;;;;;19.74;90.32;101549.09;5218820;28;20028;-74
2022/05/19 07:16:41;;;;;;;16.63;14.37;;;;;;;19.75;88.50;101552.59;5192793;28;20032;-74
2022/05/19 07:22:05;;;;;;;17.93;15.57;;;;;;;19.92;87.50;101548.44;5213995;28;20038;-74
2022/05/19 07:24:36;;;;;;;20.03;14.63;;;;;;;19.95;85.59;101513.59;5211417;28;20121;-74
2022/05/19 07:27:07;;;;;;;18.83;14.77;;;;;;;20.29;85.91;101537.19;5207034;28;20116;-75
2022/05/19 07:29:39;;;;;;;15.90;13.37;;;;;;;20.43;84.45;101532.44;5226185;28;20507;-74
2022/05/19 07:32:10;;;;;;;14.40;12.87;;;;;;;20.44;82.54;101518.13;5212599;28;20022;-74
2022/05/19 07:34:42;;;;;;;17.93;13.43;;;;;;;20.68;81.90;101546.16;5225033;28;20063;-75
2022/05/19 07:37:13;;;;;;;17.03;14.23;;;;;;;20.84;81.32;101552.72;5206460;28;20038;-74
2022/05/19 07:39:44;;;;;;;23.03;13.67;;;;;;;21.09;80.04;101569.06;5226689;28;20025;-74
2022/05/19 07:42:16;;;;;;;18.27;13.90;;;;;;;21.08;80.64;101573.56;5211387;28;20022;-74
2022/05/19 07:44:47;;;;;;;16.53;12.97;;;;;;;21.37;78.86;101546.00;5210972;28;20061;-75
2022/05/19 07:47:19;;;;;;;14.55;13.05;;;;;;;21.69;77.76;101565.19;5210114;28;20552;-74
2022/05/19 07:49:54;;;;;;;14.15;11.55;;;;;;;22.00;75.71;101556.91;5226767;28;20025;-75
2022/05/19 07:52:26;;;;;;;13.88;12.18;;;;;;;22.53;71.80;101571.41;5215797;28;20459;-74
2022/05/19 07:54:57;;;;;;;16.15;12.35;;;;;;;22.76;70.15;101555.75;5231123;28;20036;-75
2022/05/19 07:57:28;;;;;;;20.00;13.23;;;;;;;23.41;67.39;101539.44;5216984;28;20038;-74
2022/05/19 08:00:00;;;;;;;17.05;12.38;;;;;;;23.89;67.62;101534.44;5230020;28;20022;-75
2022/05/19 08:02:32;;;;;;;17.23;11.35;;;;;;;24.51;61.92;101555.56;5222690;28;20034;-75
2022/05/19 08:05:04;;;;;;;13.02;10.48;;;;;;;24.63;61.03;101529.28;5221322;28;20418;-75
2022/05/19 08:07:35;;;;;;;12.45;10.15;;;;;;;25.47;58.72;101536.13;5207982;28;20249;-75
2022/05/19 08:10:26;;;;;;;15.00;10.13;;;;;;;26.22;57.59;101554.47;5227185;28;20060;-75
2022/05/19 08:15:48;;;;;;;12.30;9.48;;;;;;;26.98;53.11;101530.47;5208412;28;20484;-75
2022/05/19 08:18:21;;;;;;;11.95;8.30;;;;;;;27.46;50.92;101556.13;5213817;28;20037;-75
2022/05/19 08:20:58;;;;;;;10.70;8.07;;;;;;;28.03;51.36;101569.81;5222971;28;20033;-75
2022/05/19 08:23:32;;;;;;;15.45;8.48;;;;;;;28.02;49.31;101530.47;5212699;28;20136;-75
2022/05/19 08:26:04;;;;;;;10.90;7.63;;;;;;;28.50;45.73;101552.47;5209076;28;20029;-75
2022/05/19 08:28:41;;;;;;;9.57;6.65;;;;;;;28.32;46.13;101556.41;5215780;28;20043;-75
2022/05/19 08:31:18;;;;;;;9.93;6.90;;;;;;;28.92;43.47;101568.69;5223226;28;20136;-75
2022/05/19 08:33:53;;;;;;;11.20;7.18;;;;;;;28.19;43.80;101556.31;5230573;28;20025;-75
2022/05/19 08:36:26;;;;;;;16.40;6.90;;;;;;;28.46;43.65;101554.72;5224746;28;20029;-75
2022/05/19 08:38:57;;;;;;;8.60;7.00;;;;;;;28.68;43.59;101559.22;5217565;28;20061;-75
2022/05/19 08:41:35;;;;;;;12.77;6.95;;;;;;;29.38;42.89;101560.25;5217373;28;20042;-75
2022/05/19 08:44:12;;;;;;;9.00;7.40;;;;;;;29.00;42.23;101530.00;5209972;28;20449;-75
2022/05/19 08:46:48;;;;;;;10.55;6.90;;;;;;;29.31;41.37;101530.53;5207815;28;20037;-76
2022/05/19 08:49:31;;;;;;;13.50;7.10;;;;;;;29.62;41.56;101542.72;5209172;28;20034;-75
2022/05/19 08:52:09;;;;;;;9.63;6.15;;;;;;;29.54;41.04;101541.00;5226056;28;20064;-76
2022/05/19 08:54:44;;;;;;;13.40;5.95;;;;;;;30.03;40.04;101542.78;5209629;28;20392;-76
2022/05/19 08:57:23;;;;;;;10.77;6.18;;;;;;;29.78;40.21;101535.25;5207257;28;20056;-75
2022/05/19 09:00:13;;;;;;;13.52;6.00;;;;;;;30.17;38.53;101533.66;5210354;28;20029;-75
2022/05/19 09:02:52;;;;;;;17.08;5.88;;;;;;;29.91;39.77;101537.16;5233583;28;20041;-75
2022/05/19 09:05:42;;;;;;;9.52;5.57;;;;;;;29.63;40.67;101536.28;5217938;28;20034;-75
2022/05/19 09:08:30;;;;;;;12.15;6.22;;;;;;;28.95;42.18;101527.03;5206610;28;20108;-75
2022/05/19 09:11:15;;;;;;;12.82;5.43;;;;;;;29.13;42.63;101513.06;5219286;28;20021;-75
2022/05/19 09:14:28;;;;;;;10.18;5.07;;;;;;;29.81;41.82;101534.88;5230242;28;20013;-75
2022/05/19 09:17:08;;;;;;;10.52;5.65;;;;;;;29.77;42.12;101520.13;5193413;28;20112;-76
2022/05/19 09:19:47;;;;;;;11.50;5.70;;;;;;;29.86;40.69;101523.47;5172213;28;20030;-75
2022/05/19 09:22:22;;;;;;;11.13;6.20;;;;;;;29.91;40.83;101519.13;5222698;28;20045;-75
2022/05/19 09:24:54;;;;;;;14.35;5.53;;;;;;;30.01;40.73;101507.06;5211445;28;20029;-75
2022/05/19 09:27:25;;;;;;;10.48;6.00;;;;;;;30.29;39.92;101493.38;5207215;28;20045;-74
2022/05/19 09:29:58;;;;;;;8.93;5.05;;;;;;;30.24;40.99;101478.84;5213031;28;20026;-74
2022/05/19 09:32:35;;;;;;;10.95;6.60;;;;;;;30.23;39.74;101515.00;5228553;28;20120;-75
2022/05/19 09:35:10;;;;;;;15.48;5.45;;;;;;;29.77;40.40;101522.81;5219949;28;20431;-75
2022/05/19 09:37:43;;;;;;;8.77;5.72;;;;;;;29.23;41.39;101528.88;5207001;28;20575;-74
2022/05/19 09:40:30;;;;;;;11.73;5.30;;;;;;;29.83;40.89;101505.81;5216792;28;20100;-74
2022/05/19 09:43:08;;;;;;;11.32;5.03;;;;;;;29.27;41.35;101530.09;5220261;28;20376;-74
2022/05/19 09:45:46;;;;;;;13.15;5.32;;;;;;;29.09;41.55;101526.13;5208492;28;20053;-74
2022/05/19 09:48:27;;;;;;;12.05;4.53;;;;;;;29.43;42.90;101522.72;5212988;28;20033;-74
2022/05/19 09:51:02;;;;;;;15.90;5.18;;;;;;;28.81;42.95;101515.34;5219716;28;20022;-74
2022/05/19 09:53:41;;;;;;;10.55;5.30;;;;;;;29.19;43.08;101509.56;5225250;28;20022;-75
2022/05/19 09:56:16;;;;;;;9.32;4.82;;;;;;;28.82;42.38;101511.59;5230440;28;20325;-74
2022/05/19 09:58:51;;;;;;;13.32;4.28;;;;;;;29.08;42.77;101510.13;5229325;28;20029;-75
2022/05/19 10:01:29;;;;;;;8.38;4.45;;;;;;;29.45;42.72;101501.75;5224003;28;20014;-78
2022/05/19 10:04:06;;;;;;;9.98;4.68;;;;;;;28.99;42.39;101504.09;5232162;28;20041;-76
2022/05/19 10:06:48;;;;;;;11.35;3.97;;;;;;;29.05;40.92;101494.34;5209761;28;20026;-78
2022/05/19 10:09:23;;;;;;;12.43;4.13;;;;;;;29.27;39.75;101492.34;5225141;28;20112;-80
2022/05/19 10:12:04;;;;;;;12.95;4.03;;;;;;;29.42;39.91;101461.69;5232806;28;20025;-80
2022/05/19 10:14:36;;;;;;;7.55;3.08;;;;;;;29.90;38.50;101458.03;5231928;28;20491;-79
2022/05/19 10:17:08;;;;;;;9.25;3.20;;;;;;;29.59;38.51;101456.75;5221669;28;20068;-80
2022/05/19 10:19:55;;;;;;;7.68;3.08;;;;;;;29.95;38.53;101444.75;5220816;28;20062;-77
2022/05/19 10:22:41;;;;;;;9.30;3.83;;;;;;;29.85;37.37;101444.34;5217503;28;20036;-77
2022/05/19 10:25:21;;;;;;;9.60;3.60;;;;;;;29.80;37.39;101457.63;5232741;28;20045;-76
2022/05/19 10:31:18;;;;;;;8.02;3.40;;;;;;;30.01;36.20;101453.06;5223999;28;20069;-77
2022/05/19 10:34:15;;;;;;;7.10;3.72;;;;;;;30.09;37.72;101447.47;5232995;28;20065;-77
2022/05/19 10:37:06;;;;;;;15.50;3.30;;;;;;;30.13;38.04;101445.16;5209824;28;20038;-76
2022/05/19 10:39:52;;;;;;;13.80;3.70;;;;;;;30.65;36.52;101444.47;5222311;28;20087;-74
2022/05/19 10:42:53;;;;;;;5.57;3.10;;;;;;;30.75;36.44;101441.31;5216016;28;20071;-74
2022/05/19 10:45:33;;;;;;;6.65;2.60;;;;;;;30.61;36.52;101456.75;5230494;28;20032;-74
2022/05/19 10:48:40;;;;;;;3.90;2.40;;;;;;;30.61;36.88;101457.59;5216462;28;20484;-77
2022/05/19 10:51:23;;;;;;;9.30;3.22;;;;;;;30.40;36.44;101451.41;5222540;28;20988;-78
2022/05/19 10:53:58;;;;;;;8.57;2.97;;;;;;;30.33;36.11;101450.56;5220998;28;20026;-78
2022/05/19 10:56:38;;;;;;;10.40;3.13;;;;;;;30.36;36.23;101450.16;5220340;28;20029;-78
2022/05/19 10:59:25;;;;;;;6.55;3.15;;;;;;;30.23;37.32;101444.78;5221958;28;20107;-78
2022/05/19 11:02:18;;;;;;;5.25;2.70;;;;;;;30.16;37.53;101444.75;5221184;28;20053;-78
2022/05/19 11:05:07;;;;;;;12.88;3.60;;;;;;;30.23;36.58;101440.19;5221239;28;20029;-78
2022/05/19 11:07:54;;;;;;;7.95;3.08;;;;;;;29.92;37.67;101442.47;5216381;28;20017;-74
2022/05/19 11:10:44;;;;;;;6.78;3.15;;;;;;;29.39;36.76;101376.63;5220026;28;20040;-77
2022/05/19 11:13:35;;;;;;;7.25;3.33;;;;;;;29.43;38.08;101444.50;5240142;28;20034;-77
2022/05/19 11:16:37;;;;;;;5.72;3.30;;;;;;;29.13;38.69;101437.56;5218759;28;20029;-77
2022/05/19 11:19:27;;;;;;;8.23;2.88;;;;;;;29.37;37.67;101434.50;5220793;28;20104;-78
2022/05/19 11:22:09;;;;;;;7.63;2.95;;;;;;;29.17;38.54;101454.97;5228561;28;20032;-77
2022/05/19 11:27:54;;;;;;;5.28;2.83;;;;;;;28.97;39.16;101469.22;5227704;28;20048;-79
2022/05/19 11:30:33;;;;;;;5.05;3.40;;;;;;;28.87;39.39;101466.84;5217376;28;20038;-77
2022/05/19 11:33:11;;;;;;;7.95;3.30;;;;;;;28.64;39.41;101472.56;5218063;28;20033;-82
2022/05/19 11:35:47;;;;;;;9.90;3.80;;;;;;;28.60;39.68;101499.06;5218513;28;20117;-83
2022/05/19 11:38:26;;;;;;;8.70;3.20;;;;;;;28.54;39.88;101504.41;5220138;28;20407;-76
2022/05/19 11:41:00;;;;;;;7.72;3.05;;;;;;;28.32;40.68;101604.06;5222470;28;20048;-78
2022/05/19 11:43:59;;;;;;;107.45;8.35;;;;;;;27.83;45.06;101714.09;5217476;28;20037;-81
2022/05/19 11:46:34;;;;;;;39.75;7.55;;;;;;;25.95;60.92;101757.09;5213944;28;20125;-74
2022/05/19 11:55:33;;;;;;;11.43;2.83;;;;;;;23.56;72.17;101737.50;5220400;28;20041;-79
2022/05/19 11:58:28;;;;;;;5.20;2.05;;;;;;;23.31;66.41;101724.78;5214235;28;20084;-79
2022/05/19 12:01:06;;;;;;;8.70;2.10;;;;;;;23.40;70.21;101722.16;5222454;28;20544;-76
2022/05/19 12:04:03;;;;;;;8.60;2.30;;;;;;;22.85;68.54;101711.53;5219603;28;20069;-78
2022/05/19 12:06:56;;;;;;;5.95;1.90;;;;;;;22.67;70.75;101707.00;5215502;28;20038;-76
2022/05/19 12:09:41;;;;;;;5.97;1.90;;;;;;;21.91;72.14;101706.28;5223583;28;20025;-79
2022/05/19 12:12:19;;;;;;;4.45;1.02;;;;;;;21.94;74.24;101720.16;5211258;28;20407;-82
2022/05/19 12:15:18;;;;;;;6.78;1.80;;;;;;;22.39;72.09;101717.72;5224323;28;20037;-82